EHGG

Eelde Airport

Groningen, The Netherlands
METAR EHGG 201025Z AUTO 09003KT 050V120 9999 NSC M01/M03 Q1019 NOSIG
Observed Flight Rules
Jan-20 @ 10:25 UTC (33 minutes ago) Visual Flight Rules
Wind Visibility Clouds
90° at 3 knots 10,000+ meters
  • Clear skies
Temperatures Readings
Current -1°C / 30°F
Dewpoint -3°C / 27°F
Humidity 86%
Altimeter 30.09" Hg
Pressure 1018.92 hPa
Elevation 4
METAR EHGG 201025Z AUTO 09003KT 050V120 9999 NSC M01/M03 Q1019 NOSIG
Observed Flight Rules
Jan-20 @ 10:25 UTC
(33 minutes ago)
VFR
Wind Visibility
90° at 3 knots 10,000+ meters
Clouds
  • Clear skies
Temperature Dewpoint
-1°C / 30°F -3°C / 27°F
Humidity Altimeter Pressure
86% 30.09" Hg 1018.92 hPa